Time;durP1;ratioP1;P1;durP2;ratioP2;P2;SDS_P1;SDS_P2;PMS_P1;PMS_P2;Temp;Humidity;BMP_temperature;BMP_pressure;BME280_temperature;BME280_humidity;BME280_pressure;Samples;Min_cycle;Max_cycle;Signal;HPM_P1;HPM_P2
2021/08/17 00:00:34;;;;;;;14.13;10.73;;;;;;;20.74;100.00;100265.41;1709235;83;21482;-63
2021/08/17 00:03:01;;;;;;;16.40;11.60;;;;;;;20.73;100.00;100263.81;1708630;83;20928;-60
2021/08/17 00:05:27;;;;;;;14.73;10.70;;;;;;;20.69;100.00;100272.52;1709332;83;21118;-63
2021/08/17 00:07:53;;;;;;;13.00;10.30;;;;;;;20.69;100.00;100267.22;1710601;83;21011;-63
2021/08/17 00:10:22;;;;;;;13.87;10.83;;;;;;;20.60;100.00;100266.84;1710727;83;20976;-63
2021/08/17 00:12:51;;;;;;;15.80;11.27;;;;;;;20.52;100.00;100264.11;1710407;83;21634;-63
2021/08/17 00:15:19;;;;;;;12.17;10.83;;;;;;;20.55;100.00;100265.47;1709929;83;20976;-62
2021/08/17 00:17:46;;;;;;;15.43;12.20;;;;;;;20.49;100.00;100261.95;1712366;83;22514;-62
2021/08/17 00:20:13;;;;;;;15.60;11.67;;;;;;;20.45;100.00;100262.14;1710683;83;20988;-62
2021/08/17 00:22:41;;;;;;;16.03;11.80;;;;;;;20.39;100.00;100261.83;1711038;83;20944;-63
2021/08/17 00:25:09;;;;;;;22.67;13.07;;;;;;;20.39;100.00;100262.62;1709988;83;20940;-61
2021/08/17 00:27:38;;;;;;;16.83;11.97;;;;;;;20.37;100.00;100263.91;1710746;83;22367;-62
2021/08/17 00:30:06;;;;;;;15.37;11.27;;;;;;;20.40;100.00;100267.39;1706248;83;21154;-64
2021/08/17 00:32:33;;;;;;;17.40;13.07;;;;;;;20.34;100.00;100261.75;1710995;83;21012;-63
2021/08/17 00:35:00;;;;;;;14.40;12.43;;;;;;;20.36;100.00;100260.99;1708629;83;20980;-60
2021/08/17 00:37:29;;;;;;;20.77;12.10;;;;;;;20.32;100.00;100263.86;1709563;83;21076;-62
2021/08/17 00:39:56;;;;;;;15.87;13.33;;;;;;;20.31;100.00;100262.27;1709642;83;21072;-63
2021/08/17 00:42:24;;;;;;;18.47;13.23;;;;;;;20.30;100.00;100268.59;1710339;83;21207;-63
2021/08/17 00:44:51;;;;;;;15.80;12.90;;;;;;;20.30;100.00;100264.09;1711117;83;20983;-63
2021/08/17 00:47:18;;;;;;;14.07;11.70;;;;;;;20.29;100.00;100270.44;1710901;83;20960;-61
2021/08/17 00:49:45;;;;;;;23.30;12.30;;;;;;;20.18;100.00;100268.19;1710020;83;21145;-63
2021/08/17 00:52:13;;;;;;;16.43;11.17;;;;;;;20.13;100.00;100272.63;1709448;83;20999;-61
2021/08/17 00:54:43;;;;;;;16.87;11.43;;;;;;;20.15;100.00;100274.50;1711398;83;21163;-63
2021/08/17 00:57:11;;;;;;;14.93;10.82;;;;;;;20.10;100.00;100269.95;1709824;83;21569;-60
2021/08/17 00:59:39;;;;;;;15.40;11.33;;;;;;;20.10;100.00;100273.12;1708644;83;21811;-62
2021/08/17 01:02:07;;;;;;;12.30;10.47;;;;;;;20.08;100.00;100275.23;1710323;83;21529;-63
2021/08/17 01:04:34;;;;;;;15.00;10.77;;;;;;;20.04;100.00;100280.20;1700353;83;21592;-62
2021/08/17 01:07:03;;;;;;;12.33;10.10;;;;;;;20.03;100.00;100281.23;1683166;84;21055;-63
2021/08/17 01:09:31;;;;;;;14.50;10.50;;;;;;;20.08;100.00;100283.16;1682653;84;21011;-62
2021/08/17 01:12:00;;;;;;;13.63;10.83;;;;;;;19.98;100.00;100281.17;1681150;84;21087;-63
2021/08/17 01:14:28;;;;;;;13.33;10.37;;;;;;;20.02;100.00;100288.89;1683490;84;21462;-61
2021/08/17 01:16:55;;;;;;;15.53;11.03;;;;;;;20.00;100.00;100288.36;1682357;84;20962;-62
2021/08/17 01:19:22;;;;;;;13.70;10.80;;;;;;;20.01;100.00;100287.83;1681908;84;21142;-60
2021/08/17 01:21:50;;;;;;;13.63;11.70;;;;;;;20.08;100.00;100287.93;1682790;84;21727;-63
2021/08/17 01:24:17;;;;;;;14.17;10.77;;;;;;;19.92;100.00;100288.75;1683775;84;21067;-62
2021/08/17 01:26:44;;;;;;;18.63;12.47;;;;;;;19.89;100.00;100290.58;1682713;84;20992;-62
2021/08/17 01:29:12;;;;;;;17.70;13.50;;;;;;;19.85;100.00;100298.20;1682665;84;20996;-60
2021/08/17 01:31:39;;;;;;;18.93;12.97;;;;;;;19.81;100.00;100288.33;1683033;84;21697;-59
2021/08/17 01:34:06;;;;;;;17.23;13.13;;;;;;;19.79;100.00;100296.52;1680290;84;21015;-63
2021/08/17 01:36:32;;;;;;;16.87;12.37;;;;;;;19.79;100.00;100291.23;1682022;84;21032;-62
2021/08/17 01:39:00;;;;;;;16.27;13.20;;;;;;;19.93;100.00;100298.31;1682113;84;21011;-63
2021/08/17 01:41:26;;;;;;;17.33;12.70;;;;;;;19.97;100.00;100292.80;1679302;84;21103;-61
2021/08/17 01:43:53;;;;;;;17.37;13.47;;;;;;;19.97;100.00;100298.09;1682063;83;21809;-62
2021/08/17 01:46:20;;;;;;;15.47;11.83;;;;;;;19.97;100.00;100294.66;1681147;84;21461;-63
2021/08/17 01:48:47;;;;;;;16.57;12.40;;;;;;;19.99;100.00;100294.67;1683400;84;21069;-62
2021/08/17 01:51:14;;;;;;;20.07;14.40;;;;;;;19.97;100.00;100298.63;1682930;83;21519;-61
2021/08/17 01:53:40;;;;;;;20.03;14.27;;;;;;;19.90;100.00;100300.11;1681898;84;21008;-65
2021/08/17 01:56:12;;;;;;;18.57;14.43;;;;;;;19.92;100.00;100295.36;1683457;84;21137;-64
2021/08/17 01:58:40;;;;;;;23.32;15.15;;;;;;;19.83;100.00;100292.87;1682452;84;21079;-64
2021/08/17 02:01:08;;;;;;;21.53;14.60;;;;;;;19.87;100.00;100301.91;1648725;86;21064;-63
2021/08/17 02:03:34;;;;;;;18.53;14.33;;;;;;;19.91;100.00;100303.03;1648933;86;20996;-64
2021/08/17 02:06:01;;;;;;;21.60;14.43;;;;;;;19.80;100.00;100303.41;1652733;86;21091;-61
2021/08/17 02:08:28;;;;;;;19.80;15.03;;;;;;;19.76;100.00;100306.78;1655262;86;21167;-63
2021/08/17 02:10:56;;;;;;;28.47;18.73;;;;;;;19.76;100.00;100306.78;1657628;86;21747;-63
2021/08/17 02:13:23;;;;;;;68.07;48.13;;;;;;;19.63;100.00;100315.33;1658251;86;21071;-64
2021/08/17 02:15:50;;;;;;;45.87;31.83;;;;;;;19.56;100.00;100315.98;1657543;86;21100;-60
2021/08/17 02:18:17;;;;;;;40.10;29.20;;;;;;;19.61;100.00;100320.02;1658409;86;21189;-64
2021/08/17 02:20:45;;;;;;;36.73;26.77;;;;;;;19.59;100.00;100317.35;1658420;86;20971;-63
2021/08/17 02:23:12;;;;;;;34.73;25.23;;;;;;;19.55;100.00;100314.38;1658476;86;20960;-63
2021/08/17 02:25:40;;;;;;;39.50;27.23;;;;;;;19.50;100.00;100321.42;1658088;86;21088;-60
2021/08/17 02:28:06;;;;;;;40.07;25.93;;;;;;;19.45;100.00;100322.14;1718778;83;21047;-63
2021/08/17 02:30:33;;;;;;;38.17;26.53;;;;;;;19.44;100.00;100316.06;1716762;83;21030;-64
2021/08/17 02:33:00;;;;;;;32.87;24.57;;;;;;;19.47;100.00;100322.69;1719060;83;21167;-64
2021/08/17 02:35:26;;;;;;;30.60;22.67;;;;;;;19.47;100.00;100324.02;1719601;83;21030;-64
2021/08/17 02:37:53;;;;;;;35.07;24.70;;;;;;;19.54;100.00;100324.66;1717841;83;20951;-62
2021/08/17 02:40:21;;;;;;;37.43;25.33;;;;;;;19.61;100.00;100325.30;1719122;83;21018;-62
2021/08/17 02:42:48;;;;;;;34.50;23.53;;;;;;;19.62;100.00;100330.09;1717379;83;21138;-64
2021/08/17 02:45:14;;;;;;;32.93;25.47;;;;;;;19.59;100.00;100335.86;1719644;83;21156;-63
2021/08/17 02:47:41;;;;;;;35.20;25.97;;;;;;;19.68;100.00;100333.91;1718973;83;21500;-64
2021/08/17 02:50:09;;;;;;;40.17;26.37;;;;;;;19.81;100.00;100331.48;1717750;83;21501;-60
2021/08/17 02:52:36;;;;;;;40.97;28.50;;;;;;;19.93;100.00;100326.89;1719879;83;21677;-64
2021/08/17 02:55:04;;;;;;;41.57;29.43;;;;;;;20.00;100.00;100336.48;1719286;83;21592;-64
2021/08/17 02:57:30;;;;;;;40.07;29.67;;;;;;;20.01;100.00;100332.28;1718483;83;21880;-59
2021/08/17 02:59:58;;;;;;;46.20;30.07;;;;;;;20.10;100.00;100335.31;1718960;83;21046;-60
2021/08/17 03:02:26;;;;;;;47.93;32.23;;;;;;;20.06;100.00;100336.31;1676170;79;20980;-63
2021/08/17 03:04:53;;;;;;;45.20;31.97;;;;;;;20.15;100.00;100336.19;1671401;84;21471;-63
2021/08/17 03:07:21;;;;;;;42.67;28.13;;;;;;;20.26;100.00;100336.31;1677993;84;21506;-64
2021/08/17 03:09:47;;;;;;;41.43;29.00;;;;;;;20.28;100.00;100336.35;1680780;84;21189;-64
2021/08/17 03:12:15;;;;;;;52.53;36.07;;;;;;;20.38;100.00;100348.41;1668396;84;21685;-59
2021/08/17 03:14:42;;;;;;;50.83;35.83;;;;;;;20.44;100.00;100349.25;1663175;85;21265;-63
2021/08/17 03:17:09;;;;;;;53.90;37.63;;;;;;;20.54;100.00;100348.09;1674462;84;21501;-66
2021/08/17 03:19:36;;;;;;;47.17;35.70;;;;;;;20.57;100.00;100345.45;1677684;84;21114;-66
2021/08/17 03:22:05;;;;;;;49.27;34.43;;;;;;;20.59;100.00;100353.44;1674475;84;21054;-59
2021/08/17 03:24:32;;;;;;;45.83;29.40;;;;;;;20.61;100.00;100356.66;1670758;84;21015;-63
2021/08/17 03:26:58;;;;;;;37.73;24.60;;;;;;;20.98;100.00;100346.71;1727082;82;21055;-64
2021/08/17 03:29:25;;;;;;;33.70;23.37;;;;;;;21.02;100.00;100351.79;1725861;82;20971;-64
2021/08/17 03:31:52;;;;;;;32.47;22.87;;;;;;;21.27;100.00;100346.47;1726250;81;21312;-63
2021/08/17 03:34:19;;;;;;;29.10;21.43;;;;;;;21.60;100.00;100346.79;1725109;82;21163;-60
2021/08/17 03:36:47;;;;;;;32.20;21.83;;;;;;;22.05;100.00;100348.95;1726781;81;21161;-65
2021/08/17 03:39:15;;;;;;;28.70;21.67;;;;;;;22.84;100.00;100344.52;1725356;82;20943;-66
2021/08/17 03:41:41;;;;;;;41.77;23.00;;;;;;;23.79;100.00;100338.27;1723817;82;21011;-66
2021/08/17 03:44:08;;;;;;;32.60;22.90;;;;;;;24.98;100.00;100334.08;1727108;82;21061;-63
2021/08/17 03:46:34;;;;;;;32.17;23.40;;;;;;;26.01;100.00;100326.04;1726039;82;22611;-62
2021/08/17 03:49:01;;;;;;;30.80;21.47;;;;;;;26.97;100.00;100323.21;1726077;82;21070;-64
2021/08/17 03:51:28;;;;;;;29.92;20.17;;;;;;;27.92;100.00;100303.70;1724048;82;20908;-65
2021/08/17 03:53:56;;;;;;;23.95;17.57;;;;;;;28.58;100.00;100298.36;1726889;82;21071;-64
2021/08/17 03:56:22;;;;;;;21.93;16.87;;;;;;;29.37;100.00;100298.41;1725661;81;20944;-61
2021/08/17 03:58:48;;;;;;;19.27;15.85;;;;;;;30.17;100.00;100297.34;1737311;81;21157;-64
2021/08/17 04:01:17;;;;;;;22.67;15.05;;;;;;;30.94;100.00;100297.71;1743592;80;22032;-64
2021/08/17 04:03:44;;;;;;;22.85;16.60;;;;;;;31.62;100.00;100294.63;1763894;80;21069;-65
2021/08/17 04:06:10;;;;;;;22.60;16.62;;;;;;;32.16;96.92;100292.72;1753922;81;20995;-65
2021/08/17 04:08:39;;;;;;;23.45;16.02;;;;;;;32.63;90.11;100298.77;1752057;81;20846;-66
2021/08/17 04:11:07;;;;;;;19.37;13.68;;;;;;;33.10;80.36;100293.67;1753074;81;21288;-65
2021/08/17 04:13:37;;;;;;;20.05;15.10;;;;;;;33.48;70.12;100298.83;1752781;81;20882;-60
2021/08/17 04:16:04;;;;;;;19.92;15.18;;;;;;;33.75;65.91;100297.95;1752295;81;21048;-61
2021/08/17 04:18:30;;;;;;;18.45;13.18;;;;;;;34.03;61.26;100296.17;1753853;81;20916;-60
2021/08/17 04:20:57;;;;;;;15.45;13.15;;;;;;;34.28;59.02;100292.84;1756272;81;22491;-61
2021/08/17 04:23:24;;;;;;;19.45;13.72;;;;;;;34.61;55.66;100294.02;1752326;81;21772;-61
2021/08/17 04:25:51;;;;;;;17.40;12.75;;;;;;;34.69;52.87;100299.64;1753607;81;21110;-61
2021/08/17 04:28:17;;;;;;;15.23;11.15;;;;;;;34.72;51.54;100301.66;1754144;80;21440;-61
2021/08/17 04:30:44;;;;;;;13.83;11.18;;;;;;;34.85;50.75;100297.75;1752699;81;21107;-61
2021/08/17 04:33:10;;;;;;;15.83;10.82;;;;;;;35.17;50.01;100291.87;1752585;81;21038;-63
2021/08/17 04:35:37;;;;;;;14.03;10.30;;;;;;;35.48;47.47;100297.08;1756309;81;21200;-63
2021/08/17 04:38:03;;;;;;;14.87;11.18;;;;;;;35.71;45.96;100291.84;1751493;81;20944;-61
2021/08/17 04:40:31;;;;;;;17.55;13.35;;;;;;;35.44;45.65;100288.86;1754242;81;21116;-63
2021/08/17 04:42:58;;;;;;;23.02;15.58;;;;;;;34.82;46.46;100291.13;1754233;81;21032;-62
2021/08/17 04:45:27;;;;;;;19.32;14.07;;;;;;;34.28;48.51;100292.05;1753845;81;21011;-63
2021/08/17 04:47:53;;;;;;;22.40;13.95;;;;;;;34.24;50.32;100283.05;1755504;81;21133;-63
2021/08/17 04:50:20;;;;;;;18.80;13.58;;;;;;;34.57;50.12;100289.08;1753086;81;20897;-63
2021/08/17 04:52:47;;;;;;;19.37;12.73;;;;;;;35.08;47.86;100286.62;1755859;81;21011;-61
2021/08/17 04:55:16;;;;;;;15.43;12.35;;;;;;;35.53;46.01;100294.91;1765156;80;20952;-63
2021/08/17 04:57:57;;;;;;;19.15;11.83;;;;;;;36.03;44.33;100292.62;1761282;80;20996;-63
2021/08/17 05:00:28;;;;;;;15.08;12.23;;;;;;;36.57;42.54;100290.47;1759845;80;22350;-63
2021/08/17 05:02:55;;;;;;;15.33;11.90;;;;;;;37.15;41.11;100289.03;1763052;80;20980;-63
2021/08/17 05:05:22;;;;;;;16.50;12.40;;;;;;;37.55;39.76;100297.88;1765780;80;20990;-64
2021/08/17 05:07:50;;;;;;;19.98;13.00;;;;;;;37.95;39.09;100298.10;1765181;80;21491;-62
2021/08/17 05:10:21;;;;;;;19.37;12.60;;;;;;;38.49;37.86;100299.39;1759897;80;20992;-63
2021/08/17 05:12:48;;;;;;;19.02;13.65;;;;;;;38.91;36.83;100307.30;1763941;80;21086;-62
2021/08/17 05:15:14;;;;;;;16.95;12.30;;;;;;;39.38;35.55;100305.21;1752517;81;22202;-62
2021/08/17 05:17:42;;;;;;;19.80;13.62;;;;;;;39.70;34.70;100303.91;1771837;80;20888;-62
2021/08/17 05:20:10;;;;;;;20.90;12.33;;;;;;;40.01;34.08;100302.55;1782058;80;21475;-62
2021/08/17 05:22:37;;;;;;;14.43;12.90;;;;;;;40.21;33.67;100302.47;1777663;80;21581;-62
2021/08/17 05:25:04;;;;;;;18.90;12.07;;;;;;;40.37;33.38;100296.09;1728384;82;22514;-63
2021/08/17 05:27:32;;;;;;;19.27;13.75;;;;;;;40.68;32.85;100299.92;1725282;81;21040;-63
2021/08/17 05:29:59;;;;;;;17.48;12.90;;;;;;;40.83;31.83;100306.98;1718689;82;21618;-63
2021/08/17 05:32:26;;;;;;;15.10;12.10;;;;;;;40.78;32.14;100302.69;1783466;80;20945;-61
2021/08/17 05:34:52;;;;;;;16.95;12.30;;;;;;;40.97;31.85;100306.23;1781941;80;20991;-63
2021/08/17 05:37:19;;;;;;;16.00;11.65;;;;;;;41.20;31.14;100301.78;1785027;80;21111;-64
2021/08/17 05:39:45;;;;;;;14.53;11.43;;;;;;;41.32;31.28;100303.53;1781523;80;20928;-63
2021/08/17 05:42:12;;;;;;;15.25;11.18;;;;;;;41.41;30.83;100306.48;1777345;80;21020;-62
2021/08/17 05:44:40;;;;;;;13.88;11.18;;;;;;;41.42;30.78;100308.07;1781694;80;20984;-61
2021/08/17 05:47:07;;;;;;;17.07;10.43;;;;;;;41.29;30.20;100296.11;1778884;80;21032;-63
2021/08/17 05:49:36;;;;;;;16.52;9.28;;;;;;;41.08;30.30;100311.16;1780480;80;21126;-63
2021/08/17 05:52:02;;;;;;;12.43;8.83;;;;;;;40.73;30.65;100306.40;1779986;80;20941;-63
2021/08/17 05:54:29;;;;;;;12.53;8.35;;;;;;;40.53;31.15;100305.91;1778918;80;21039;-63
2021/08/17 05:56:58;;;;;;;13.55;8.55;;;;;;;40.37;30.85;100311.70;1780615;80;20998;-63
2021/08/17 05:59:26;;;;;;;10.35;7.85;;;;;;;40.03;31.22;100306.45;1777708;80;21478;-63
2021/08/17 06:01:55;;;;;;;9.80;8.03;;;;;;;39.95;32.02;100303.48;1762183;80;21109;-63
2021/08/17 06:04:21;;;;;;;12.80;7.50;;;;;;;40.17;31.98;100305.78;1732903;82;21104;-62
2021/08/17 06:06:48;;;;;;;11.88;7.75;;;;;;;40.19;31.67;100299.92;1728221;81;21073;-62
2021/08/17 06:09:16;;;;;;;10.23;7.75;;;;;;;40.25;31.77;100303.86;1731254;81;22214;-62
2021/08/17 06:11:44;;;;;;;10.72;6.50;;;;;;;40.32;31.63;100299.20;1724994;81;21449;-63
2021/08/17 06:14:10;;;;;;;6.08;5.45;;;;;;;40.60;31.75;100296.39;1733788;82;22947;-61
2021/08/17 06:16:39;;;;;;;6.28;5.10;;;;;;;40.42;32.39;100294.93;1725666;82;21080;-63
2021/08/17 06:19:05;;;;;;;6.78;5.47;;;;;;;40.00;32.75;100300.97;1732413;82;21072;-63
2021/08/17 06:21:34;;;;;;;6.22;5.62;;;;;;;39.53;33.55;100299.88;1732386;82;21007;-63
2021/08/17 06:24:04;;;;;;;6.47;5.85;;;;;;;39.35;34.32;100303.23;1716237;82;20877;-63
2021/08/17 06:26:32;;;;;;;8.83;7.47;;;;;;;39.55;34.01;100299.70;1703003;83;21119;-63
2021/08/17 06:28:59;;;;;;;12.45;10.70;;;;;;;39.60;33.63;100297.20;1719390;82;21166;-64
2021/08/17 06:31:25;;;;;;;16.87;12.07;;;;;;;39.73;33.75;100292.23;1733165;82;20991;-63
2021/08/17 06:33:56;;;;;;;13.45;12.00;;;;;;;40.08;33.37;100286.98;1727030;81;20980;-63
2021/08/17 06:36:24;;;;;;;13.10;10.93;;;;;;;40.02;33.03;100295.92;1733296;82;20971;-62
2021/08/17 06:38:51;;;;;;;12.63;9.63;;;;;;;39.73;33.17;100291.65;1728767;82;21137;-64
2021/08/17 06:41:17;;;;;;;8.25;6.00;;;;;;;39.59;34.12;100290.16;1728212;82;21135;-65
2021/08/17 06:43:44;;;;;;;9.33;6.92;;;;;;;39.61;33.58;100292.72;1724974;82;21516;-65
2021/08/17 06:46:11;;;;;;;8.38;6.87;;;;;;;39.74;33.93;100299.25;1726189;82;21057;-64
2021/08/17 06:48:38;;;;;;;8.73;7.37;;;;;;;39.93;33.33;100301.73;1711725;82;20976;-64
2021/08/17 06:51:04;;;;;;;8.75;6.75;;;;;;;39.70;33.37;100305.27;1724100;82;21449;-62
2021/08/17 06:53:31;;;;;;;12.25;7.53;;;;;;;39.50;33.72;100304.13;1733302;82;20962;-65
2021/08/17 06:55:58;;;;;;;10.30;7.30;;;;;;;39.26;34.35;100301.42;1732052;81;20975;-63
2021/08/17 06:58:24;;;;;;;12.88;6.92;;;;;;;39.21;35.44;100299.57;1732457;82;21819;-63
2021/08/17 07:00:51;;;;;;;6.92;5.60;;;;;;;39.48;35.31;100302.96;1730774;82;21544;-62
2021/08/17 07:03:17;;;;;;;9.83;6.17;;;;;;;39.74;34.24;100307.44;1776153;79;21575;-64
2021/08/17 07:05:46;;;;;;;7.55;5.67;;;;;;;39.35;34.36;100305.19;1796273;79;21518;-63
2021/08/17 07:08:13;;;;;;;10.58;5.47;;;;;;;39.06;34.89;100303.55;1796838;79;20972;-64
2021/08/17 07:10:39;;;;;;;6.40;5.62;;;;;;;39.40;34.83;100307.55;1793105;79;21002;-65
2021/08/17 07:13:06;;;;;;;7.12;6.10;;;;;;;39.99;34.44;100308.37;1788835;79;21039;-66
2021/08/17 07:15:33;;;;;;;9.18;7.17;;;;;;;40.58;33.23;100304.20;1796955;79;22266;-64
2021/08/17 07:17:59;;;;;;;7.87;6.95;;;;;;;41.20;32.13;100302.56;1794699;79;21062;-64
2021/08/17 07:20:28;;;;;;;9.08;6.80;;;;;;;41.26;31.71;100297.50;1793623;79;20957;-64
2021/08/17 07:22:57;;;;;;;8.70;6.08;;;;;;;41.59;31.37;100303.73;1794587;79;28637;-64
2021/08/17 07:25:25;;;;;;;8.18;6.20;;;;;;;41.79;30.97;100300.20;1796424;79;21482;-64
2021/08/17 07:27:51;;;;;;;10.15;7.35;;;;;;;41.69;30.86;100294.15;1781634;79;21076;-65
2021/08/17 07:30:18;;;;;;;8.43;6.95;;;;;;;41.36;31.18;100304.13;1765996;80;21023;-63
2021/08/17 07:32:45;;;;;;;10.05;7.22;;;;;;;40.64;31.89;100304.02;1765872;81;20964;-65
2021/08/17 07:35:14;;;;;;;10.43;8.08;;;;;;;40.13;32.74;100300.30;1764704;81;21023;-61
2021/08/17 07:37:42;;;;;;;8.38;7.35;;;;;;;40.05;33.65;100295.16;1764780;80;21059;-63
2021/08/17 07:40:10;;;;;;;10.23;7.65;;;;;;;40.36;33.30;100293.76;1766022;81;21116;-64
2021/08/17 07:42:36;;;;;;;11.50;7.92;;;;;;;40.58;33.47;100292.69;1765427;81;21031;-61
2021/08/17 07:45:05;;;;;;;7.12;6.20;;;;;;;40.60;33.15;100291.70;1764863;81;20991;-61
2021/08/17 07:47:31;;;;;;;10.60;6.78;;;;;;;40.55;32.57;100290.73;1765842;81;20999;-62
2021/08/17 07:49:57;;;;;;;11.35;7.10;;;;;;;40.32;32.77;100289.64;1765860;80;21019;-64
2021/08/17 07:52:24;;;;;;;9.23;6.85;;;;;;;40.09;33.70;100285.04;1765831;81;21057;-62
2021/08/17 07:54:52;;;;;;;9.03;7.47;;;;;;;39.91;33.68;100286.89;1764154;81;21096;-64
2021/08/17 07:57:20;;;;;;;8.33;6.20;;;;;;;39.40;34.01;100280.28;1765267;81;20995;-64
2021/08/17 07:59:47;;;;;;;8.33;6.67;;;;;;;38.88;35.22;100284.87;1765295;81;20988;-65
2021/08/17 08:02:14;;;;;;;7.70;6.53;;;;;;;38.58;35.41;100280.84;1763867;80;21462;-63
2021/08/17 08:04:41;;;;;;;10.28;7.20;;;;;;;38.30;36.06;100279.33;1752333;81;22010;-65
2021/08/17 08:07:08;;;;;;;10.93;7.53;;;;;;;38.19;36.58;100282.50;1753820;81;21090;-61
2021/08/17 08:09:35;;;;;;;8.85;6.62;;;;;;;37.96;37.06;100280.64;1753959;81;21068;-63
2021/08/17 08:12:03;;;;;;;9.68;7.20;;;;;;;37.39;37.88;100282.45;1765181;80;21031;-64
2021/08/17 08:14:31;;;;;;;7.97;6.90;;;;;;;36.97;38.55;100283.85;1748630;81;20945;-62
2021/08/17 08:16:58;;;;;;;8.75;7.35;;;;;;;36.55;39.70;100280.52;1754410;81;21083;-65
2021/08/17 08:19:26;;;;;;;7.40;6.15;;;;;;;36.18;40.93;100285.00;1754920;81;20991;-61
2021/08/17 08:21:52;;;;;;;8.08;6.28;;;;;;;35.94;42.28;100287.91;1754538;81;21041;-64
2021/08/17 08:24:20;;;;;;;11.20;6.05;;;;;;;35.99;42.66;100282.23;1757703;81;20970;-64
2021/08/17 08:26:46;;;;;;;7.65;6.85;;;;;;;36.08;43.03;100282.05;1753391;81;21056;-61
2021/08/17 08:29:13;;;;;;;9.85;6.97;;;;;;;36.22;43.59;100285.08;1758763;81;21143;-62
2021/08/17 08:31:40;;;;;;;9.10;6.55;;;;;;;36.40;42.64;100277.28;1753701;81;21000;-62
2021/08/17 08:34:07;;;;;;;9.15;6.62;;;;;;;36.57;42.63;100270.10;1779873;79;21390;-62
2021/08/17 08:36:33;;;;;;;12.25;6.87;;;;;;;36.69;42.34;100270.52;1769911;79;21525;-62
2021/08/17 08:39:01;;;;;;;7.83;6.42;;;;;;;36.63;41.46;100270.00;1776149;78;20944;-63
2021/08/17 08:41:28;;;;;;;7.90;6.47;;;;;;;36.65;41.90;100265.02;1773352;79;21170;-63
2021/08/17 08:43:54;;;;;;;12.25;7.25;;;;;;;36.75;41.26;100268.52;1770644;79;21067;-63
2021/08/17 08:46:21;;;;;;;10.58;6.47;;;;;;;36.99;41.46;100264.70;1778289;79;21078;-62
2021/08/17 08:48:52;;;;;;;5.80;5.15;;;;;;;37.34;40.86;100263.72;1769665;79;21031;-61
2021/08/17 08:51:20;;;;;;;6.55;5.42;;;;;;;37.82;38.94;100253.20;1763327;79;21138;-62
2021/08/17 08:53:48;;;;;;;7.47;4.97;;;;;;;38.12;37.81;100255.96;1772446;79;40117;-60
2021/08/17 08:56:16;;;;;;;7.45;5.65;;;;;;;38.14;37.48;100256.94;1784767;79;22439;-60
2021/08/17 08:58:43;;;;;;;5.92;5.15;;;;;;;37.91;37.30;100253.73;1784705;79;20905;-60
2021/08/17 09:01:11;;;;;;;5.90;4.65;;;;;;;37.85;36.24;100248.39;1777397;79;21083;-62
2021/08/17 09:03:48;;;;;;;5.45;4.80;;;;;;;37.85;37.09;100248.39;1781546;79;21086;-62
2021/08/17 09:06:21;;;;;;;8.15;4.75;;;;;;;37.83;37.16;100248.54;1785019;79;21407;-62
2021/08/17 09:08:52;;;;;;;6.15;4.90;;;;;;;37.53;37.00;100248.50;1788322;79;21110;-64
2021/08/17 09:11:21;;;;;;;7.22;4.90;;;;;;;37.47;36.56;100250.76;1776258;79;21526;-63
2021/08/17 09:13:48;;;;;;;6.22;4.90;;;;;;;37.54;37.07;100245.40;1740335;81;21103;-63
2021/08/17 09:16:28;;;;;;;5.30;4.80;;;;;;;37.92;36.41;100234.91;1746143;81;20996;-64
2021/08/17 09:18:57;;;;;;;7.20;5.10;;;;;;;38.11;35.67;100238.62;1733471;81;20937;-64
2021/08/17 09:21:39;;;;;;;7.47;4.90;;;;;;;38.21;33.53;100235.25;1743997;81;21044;-63
2021/08/17 09:24:16;;;;;;;5.85;5.08;;;;;;;37.90;34.09;100235.84;1742670;81;21138;-63
2021/08/17 09:26:48;;;;;;;7.30;5.37;;;;;;;37.23;34.12;100230.14;1716234;82;20996;-62
2021/08/17 09:29:34;;;;;;;5.55;5.03;;;;;;;36.77;35.40;100232.25;1720455;82;21062;-62
2021/08/17 09:32:12;;;;;;;7.25;5.30;;;;;;;36.62;35.61;100236.43;1721337;82;21072;-63
2021/08/17 09:34:39;;;;;;;6.15;5.30;;;;;;;36.42;36.76;100231.56;1714537;82;21632;-62
2021/08/17 09:37:10;;;;;;;6.33;5.72;;;;;;;36.20;36.67;100233.06;1675838;82;21526;-65
2021/08/17 09:39:41;;;;;;;7.12;6.47;;;;;;;35.84;37.36;100240.44;1719066;82;20968;-62
2021/08/17 09:42:17;;;;;;;8.05;6.87;;;;;;;35.18;38.41;100234.39;1725714;82;20951;-65
2021/08/17 09:44:49;;;;;;;7.83;6.62;;;;;;;34.71;40.29;100232.41;1718307;82;21084;-64
2021/08/17 09:47:16;;;;;;;8.30;7.15;;;;;;;34.65;41.60;100233.77;1707846;82;21851;-62
2021/08/17 09:49:42;;;;;;;7.20;6.50;;;;;;;34.60;41.75;100230.19;1652233;82;21170;-63
2021/08/17 09:52:16;;;;;;;9.10;7.10;;;;;;;34.86;41.35;100232.42;1715428;82;21586;-63
2021/08/17 09:54:45;;;;;;;6.45;5.75;;;;;;;35.05;39.86;100230.42;1723549;82;20948;-61
2021/08/17 09:57:12;;;;;;;6.90;6.20;;;;;;;34.92;38.86;100234.30;1703782;82;22352;-61
2021/08/17 09:59:41;;;;;;;10.35;6.95;;;;;;;34.47;39.56;100231.90;1707354;82;21106;-62
2021/08/17 10:02:08;;;;;;;7.25;6.55;;;;;;;34.34;41.42;100229.25;1717458;82;20960;-62
2021/08/17 10:04:36;;;;;;;8.00;6.22;;;;;;;34.64;41.41;100231.64;1734364;82;22169;-63
2021/08/17 10:07:06;;;;;;;7.12;6.33;;;;;;;35.13;40.30;100224.61;1725239;82;21028;-64
2021/08/17 10:09:34;;;;;;;8.55;6.37;;;;;;;35.71;39.85;100226.76;1721719;82;21635;-62
2021/08/17 10:12:03;;;;;;;7.15;5.45;;;;;;;36.15;38.73;100222.50;1725175;82;21143;-62
2021/08/17 10:14:31;;;;;;;8.53;5.87;;;;;;;36.45;37.02;100217.28;1775535;79;20982;-62
2021/08/17 10:16:59;;;;;;;8.35;4.92;;;;;;;36.67;37.29;100217.92;1768010;80;21466;-63
2021/08/17 10:19:32;;;;;;;5.33;4.72;;;;;;;37.09;36.34;100215.76;1771325;80;21002;-62
2021/08/17 10:22:01;;;;;;;5.75;4.97;;;;;;;37.49;35.51;100214.45;1762794;80;21806;-64
2021/08/17 10:24:42;;;;;;;7.33;5.20;;;;;;;38.03;34.81;100212.47;1767592;80;20978;-63
2021/08/17 10:27:25;;;;;;;6.22;5.25;;;;;;;38.49;33.39;100206.80;1767554;80;21093;-62
2021/08/17 10:30:11;;;;;;;7.20;5.35;;;;;;;38.94;31.78;100205.11;1766179;80;20987;-63
2021/08/17 10:32:51;;;;;;;6.25;5.55;;;;;;;39.21;31.71;100210.41;1766586;80;21094;-61
2021/08/17 10:35:46;;;;;;;7.42;5.85;;;;;;;38.94;31.19;100210.55;1766448;80;21230;-62
2021/08/17 10:38:23;;;;;;;6.65;6.05;;;;;;;38.31;31.80;100205.23;1719958;80;21039;-61
2021/08/17 10:40:54;;;;;;;7.83;6.33;;;;;;;37.76;32.31;100200.83;1765004;79;21586;-63
2021/08/17 10:43:33;;;;;;;9.20;6.85;;;;;;;37.35;32.66;100201.39;1770293;80;21506;-64
2021/08/17 10:46:03;;;;;;;6.97;6.22;;;;;;;37.16;33.50;100200.13;1765584;80;21081;-63
2021/08/17 10:48:59;;;;;;;6.85;5.53;;;;;;;37.07;33.70;100188.73;1767870;80;21099;-63
2021/08/17 10:51:27;;;;;;;;;;;;;;;36.91;33.71;100188.83;1766462;80;21406;-61
2021/08/17 10:54:10;;;;;;;9.25;5.03;;;;;;;36.89;34.26;100190.54;1770458;79;21249;-62
2021/08/17 10:56:38;;;;;;;12.88;5.65;;;;;;;36.76;33.80;100189.16;1767261;80;20944;-64
2021/08/17 10:59:05;;;;;;;7.58;6.83;;;;;;;36.43;34.02;100190.47;1770300;80;21494;-61
2021/08/17 11:01:39;;;;;;;7.65;6.60;;;;;;;36.19;34.14;100188.08;1767797;79;21103;-64
2021/08/17 11:04:20;;;;;;;8.85;7.00;;;;;;;36.19;34.73;100182.66;1763581;79;20983;-63
2021/08/17 11:06:53;;;;;;;12.53;9.90;;;;;;;36.17;34.90;100187.64;1758026;80;21695;-61
2021/08/17 11:09:28;;;;;;;13.08;11.78;;;;;;;36.21;34.25;100185.20;1754441;81;21070;-63
2021/08/17 11:11:59;;;;;;;15.32;8.75;;;;;;;36.21;33.94;100181.13;1757425;81;21004;-63
2021/08/17 11:14:31;;;;;;;8.58;7.78;;;;;;;36.33;33.42;100183.48;1757427;81;20980;-63
2021/08/17 11:17:06;;;;;;;7.67;6.87;;;;;;;36.54;33.71;100179.27;1755540;81;22082;-61